Eurocargo Valencia — IBGZ — position and weather

sailwx.info

Track history (hours):
 
Tides and Currents Weather Stations Pressure Air Temp Water Temp Dewpoint Dewpoint Depression Visibility Wind Speed Wind Dir Waves Ship Positions

Eurocargo Valencia

Last reported at 2015-Apr-18 21:33 UTC. Time now 2015-Apr-19 01:04 UTC.
Position N 40°29' E 018°28'.

Length 196 m; draft 6.5 m.

Type: Cargo ship. MMSI: 247579000.

Date/timePositionNaut miles runAvg speedWind from/ knotsBaromVisibWave heightAir tempDewpointWater temp
2015-Apr-18 21:33N 40°29' E 018°28'1916.0
2015-Apr-18 20:21N 40°12' E 018°41'1715.9
2015-Apr-18 19:17N 39°58' E 018°52'1215.9
2015-Apr-18 18:33N 39°48' E 018°60'1916.2
2015-Apr-18 17:23N 39°31' E 019°12'1616.7
2015-Apr-18 16:24N 39°17' E 019°22'1416.8
2015-Apr-18 15:32N 39°05' E 019°33'23411.5
2015-Apr-17 19:16N 37°22' E 023°60'1416.0
2015-Apr-17 18:22N 37°34' E 024°09'28713.1
2015-Apr-16 20:30N 40°26' E 029°04'290 5.9
2015-Apr-14 19:25N 37°23' E 024°15'1616.1
2015-Apr-14 18:27N 37°11' E 024°03'1516.4
2015-Apr-14 17:33N 36°59' E 023°52'1616.4
2015-Apr-14 16:33N 36°47' E 023°39'23313.3
2015-Apr-13 23:06N 38°59' E 019°36'915.9
2015-Apr-13 22:32N 39°07' E 019°30'1716.1
2015-Apr-13 21:27N 39°22' E 019°19'1416.0
2015-Apr-13 20:34N 39°34' E 019°10'1616.0
2015-Apr-13 19:34N 39°48' E 018°59'1616.2
2015-Apr-13 18:34N 40°02' E 018°49'1616.2
2015-Apr-13 17:34N 40°16' E 018°39'1716.5
2015-Apr-13 16:33N 40°30' E 018°26'  
2015-Apr-10 02:28N 42°23' E 017°33'1516.3
2015-Apr-10 01:33N 42°20' E 017°53'1616.4
2015-Apr-10 00:33N 42°16' E 018°14'1616.3
2015-Apr-09 23:33N 42°12' E 018°36'1615.9
2015-Apr-09 22:34N 42°08' E 018°56'5 1.2
2015-Apr-09 18:14N 42°06' E 019°03'1013.4
2015-Apr-09 17:29N 41°56' E 019°02'11514.2
2015-Apr-09 09:25N 40°01' E 019°10'1214.0
2015-Apr-09 08:33N 39°50' E 019°16'1514.8
2015-Apr-09 07:32N 39°37' E 019°25'1414.8
2015-Apr-09 06:33N 39°23' E 019°32'1414.4
2015-Apr-09 05:34N 39°10' E 019°40'  
Track history (hours):
 
Tides and Currents Weather Stations Pressure Air Temp Water Temp Dewpoint Dewpoint Depression Visibility Wind Speed Wind Dir Waves Ship Positions

Eurocargo Valencia

Last reported at 2015-Apr-18 21:33 UTC. Time now 2015-Apr-19 01:04 UTC.
Position N 40°29' E 018°28'.

Length 196 m; draft 6.5 m.

Type: Cargo ship. MMSI: 247579000.

Date/timePositionNaut miles runAvg speedWind from/ knotsBaromVisibWave heightAir tempDewpointWater temp
2015-Apr-18 21:33N 40°29' E 018°28'1916.0
2015-Apr-18 20:21N 40°12' E 018°41'1715.9
2015-Apr-18 19:17N 39°58' E 018°52'1215.9
2015-Apr-18 18:33N 39°48' E 018°60'1916.2
2015-Apr-18 17:23N 39°31' E 019°12'1616.7
2015-Apr-18 16:24N 39°17' E 019°22'1416.8
2015-Apr-18 15:32N 39°05' E 019°33'23411.5
2015-Apr-17 19:16N 37°22' E 023°60'1416.0
2015-Apr-17 18:22N 37°34' E 024°09'28713.1
2015-Apr-16 20:30N 40°26' E 029°04'290 5.9
2015-Apr-14 19:25N 37°23' E 024°15'1616.1
2015-Apr-14 18:27N 37°11' E 024°03'1516.4
2015-Apr-14 17:33N 36°59' E 023°52'1616.4
2015-Apr-14 16:33N 36°47' E 023°39'23313.3
2015-Apr-13 23:06N 38°59' E 019°36'915.9
2015-Apr-13 22:32N 39°07' E 019°30'1716.1
2015-Apr-13 21:27N 39°22' E 019°19'1416.0
2015-Apr-13 20:34N 39°34' E 019°10'1616.0
2015-Apr-13 19:34N 39°48' E 018°59'1616.2
2015-Apr-13 18:34N 40°02' E 018°49'1616.2
2015-Apr-13 17:34N 40°16' E 018°39'1716.5
2015-Apr-13 16:33N 40°30' E 018°26'  
2015-Apr-10 02:28N 42°23' E 017°33'1516.3
2015-Apr-10 01:33N 42°20' E 017°53'1616.4
2015-Apr-10 00:33N 42°16' E 018°14'1616.3
2015-Apr-09 23:33N 42°12' E 018°36'1615.9
2015-Apr-09 22:34N 42°08' E 018°56'5 1.2
2015-Apr-09 18:14N 42°06' E 019°03'1013.4
2015-Apr-09 17:29N 41°56' E 019°02'11514.2
2015-Apr-09 09:25N 40°01' E 019°10'1214.0
2015-Apr-09 08:33N 39°50' E 019°16'1514.8
2015-Apr-09 07:32N 39°37' E 019°25'1414.8
2015-Apr-09 06:33N 39°23' E 019°32'1414.4
2015-Apr-09 05:34N 39°10' E 019°40'  

Dump ship's entire track history